createdAt,value
2022-09-28T00:00:58.609Z,98261.97
2022-09-28T00:03:31.933Z,98260.12
2022-09-28T00:06:05.556Z,98248.66
2022-09-28T00:08:39.358Z,98237.19
2022-09-28T00:11:16.035Z,98243.22
2022-09-28T00:14:06.549Z,98234.28
2022-09-28T00:16:36.086Z,98233.41
2022-09-28T00:19:10.835Z,98236.56
2022-09-28T00:21:50.066Z,98222.81
2022-09-28T00:24:27.914Z,98240.84
2022-09-28T00:26:57.098Z,98236.19
2022-09-28T00:29:28.455Z,98232.53
2022-09-28T00:32:00.124Z,98236.00
2022-09-28T00:34:32.101Z,98232.25
2022-09-28T00:37:03.283Z,98233.41
2022-09-28T00:39:38.811Z,98241.00
2022-09-28T00:42:12.503Z,98236.62
2022-09-28T00:44:42.167Z,98236.62
2022-09-28T00:47:15.310Z,98236.03
2022-09-28T00:49:44.825Z,98244.50
2022-09-28T00:52:17.477Z,98244.72
2022-09-28T00:54:48.530Z,98230.22
2022-09-28T00:57:18.076Z,98228.53
2022-09-28T00:59:46.937Z,98238.03
2022-09-28T01:02:18.636Z,98240.84
2022-09-28T01:04:47.408Z,98242.38
2022-09-28T01:07:20.116Z,98242.13
2022-09-28T01:09:51.565Z,98243.56
2022-09-28T01:12:23.385Z,98240.22
2022-09-28T01:14:52.384Z,98239.75
2022-09-28T01:17:25.500Z,98242.59
2022-09-28T01:20:12.925Z,98249.94
2022-09-28T01:22:58.038Z,98248.19
2022-09-28T01:25:32.807Z,98245.91
2022-09-28T01:28:03.482Z,98254.53
2022-09-28T01:30:39.173Z,98249.78
2022-09-28T01:33:15.395Z,98256.09
2022-09-28T01:35:45.310Z,98255.22
2022-09-28T01:38:17.680Z,98256.16
2022-09-28T01:40:47.803Z,98255.47
2022-09-28T01:43:21.303Z,98262.94
2022-09-28T01:45:58.456Z,98268.56
2022-09-28T01:48:31.153Z,98271.66
2022-09-28T01:51:01.735Z,98275.94
2022-09-28T01:53:31.313Z,98270.19
2022-09-28T01:56:03.410Z,98271.03
2022-09-28T01:58:34.295Z,98258.44
2022-09-28T02:01:05.113Z,98258.91
2022-09-28T02:03:36.233Z,98264.63
2022-09-28T02:06:07.205Z,98271.19
2022-09-28T02:08:36.656Z,98270.66
2022-09-28T02:11:07.428Z,98267.59
2022-09-28T02:13:39.191Z,98271.66
2022-09-28T02:16:10.565Z,98267.44
2022-09-28T02:18:39.811Z,98266.22
2022-09-28T02:21:12.334Z,98259.84
2022-09-28T02:23:41.476Z,98267.09
2022-09-28T02:26:11.163Z,98266.16
2022-09-28T02:28:41.370Z,98262.41
2022-09-28T02:31:13.214Z,98270.19
2022-09-28T02:33:42.177Z,98267.59
2022-09-28T02:36:14.882Z,98267.50
2022-09-28T02:38:44.381Z,98267.66
2022-09-28T02:41:26.883Z,98270.53
2022-09-28T02:44:02.279Z,98276.09
2022-09-28T02:46:38.320Z,98267.56
2022-09-28T02:49:21.515Z,98271.66
2022-09-28T02:51:54.237Z,98274.41
2022-09-28T02:54:30.861Z,98272.78
2022-09-28T02:57:07.087Z,98281.72
2022-09-28T02:59:48.363Z,98286.66
2022-09-28T03:02:20.877Z,98278.44
2022-09-28T03:04:50.589Z,98297.12
2022-09-28T03:07:30.006Z,98302.50
2022-09-28T03:10:01.051Z,98299.31
2022-09-28T03:12:33.338Z,98317.63
2022-09-28T03:15:15.239Z,98317.91
2022-09-28T03:17:44.274Z,98311.47
2022-09-28T03:20:16.595Z,98304.03
2022-09-28T03:22:55.989Z,98318.69
2022-09-28T03:25:42.958Z,98311.50
2022-09-28T03:28:12.302Z,98321.19
2022-09-28T03:30:43.547Z,98313.94
2022-09-28T03:33:12.494Z,98308.81
2022-09-28T03:35:42.935Z,98310.31
2022-09-28T03:38:11.934Z,98310.09
2022-09-28T03:40:45.790Z,98306.34
2022-09-28T03:43:15.546Z,98312.91
2022-09-28T03:45:54.167Z,98316.19
2022-09-28T03:48:31.377Z,98318.03
2022-09-28T03:51:01.241Z,98321.75
2022-09-28T03:53:30.698Z,98319.88
2022-09-28T03:56:03.269Z,98318.25
2022-09-28T03:58:35.313Z,98311.47
2022-09-28T04:01:07.544Z,98315.06
2022-09-28T04:03:40.611Z,98310.66
2022-09-28T04:06:15.835Z,98308.37
2022-09-28T04:08:47.950Z,98308.37
2022-09-28T04:11:16.862Z,98307.75
2022-09-28T04:13:49.132Z,98305.69
2022-09-28T04:16:19.490Z,98309.91
2022-09-28T04:18:50.274Z,98308.94
2022-09-28T04:21:20.133Z,98305.56
2022-09-28T04:23:50.117Z,98311.44
2022-09-28T04:26:20.372Z,98313.16
2022-09-28T04:29:06.993Z,98298.91
2022-09-28T04:34:17.373Z,98301.53
2022-09-28T04:36:49.117Z,98300.94
2022-09-28T04:39:19.297Z,98302.81
2022-09-28T04:41:48.857Z,98302.56
2022-09-28T04:44:17.842Z,98313.34
2022-09-28T04:46:50.739Z,98311.94
2022-09-28T04:49:21.702Z,98309.41
2022-09-28T04:51:51.386Z,98309.06
2022-09-28T04:54:20.240Z,98303.88
2022-09-28T04:56:56.471Z,98296.00
2022-09-28T04:59:25.952Z,98292.63
2022-09-28T05:01:56.774Z,98299.25
2022-09-28T05:04:26.360Z,98302.88
2022-09-28T05:06:55.978Z,98302.91
2022-09-28T05:09:25.411Z,98308.59
2022-09-28T05:11:56.227Z,98311.44
2022-09-28T05:14:25.862Z,98315.84
2022-09-28T05:16:58.575Z,98318.16
2022-09-28T05:19:31.212Z,98314.50
2022-09-28T05:22:04.071Z,98313.62
2022-09-28T05:24:32.886Z,98326.31
2022-09-28T05:27:05.227Z,98329.66
2022-09-28T05:29:33.969Z,98326.78
2022-09-28T05:32:08.935Z,98327.38
2022-09-28T05:34:44.017Z,98325.34
2022-09-28T05:37:13.560Z,98324.97
2022-09-28T05:39:48.434Z,98329.13
2022-09-28T05:42:17.466Z,98328.09
2022-09-28T05:44:48.881Z,98325.63
2022-09-28T05:47:19.819Z,98329.72
2022-09-28T05:49:50.118Z,98322.66
2022-09-28T05:52:18.898Z,98310.31
2022-09-28T05:54:50.471Z,98314.63
2022-09-28T05:57:19.236Z,98316.16
2022-09-28T05:59:51.686Z,98316.03
2022-09-28T06:02:21.859Z,98317.34
2022-09-28T06:05:00.283Z,98320.81
2022-09-28T06:07:42.101Z,98314.84
2022-09-28T06:10:18.739Z,98323.19
2022-09-28T06:12:48.709Z,98324.06
2022-09-28T06:15:18.337Z,98323.38
2022-09-28T06:18:02.731Z,98324.00
2022-09-28T06:20:37.381Z,98318.09
2022-09-28T06:23:15.178Z,98317.50
2022-09-28T06:25:52.366Z,98323.78
2022-09-28T06:28:44.251Z,98317.81
2022-09-28T06:31:23.817Z,98320.38
2022-09-28T06:34:01.903Z,98325.56
2022-09-28T06:36:38.583Z,98321.66
2022-09-28T06:39:18.752Z,98328.12
2022-09-28T06:41:59.335Z,98328.62
2022-09-28T06:44:44.039Z,98325.94
2022-09-28T06:47:28.560Z,98325.09
2022-09-28T06:50:14.667Z,98335.50
2022-09-28T06:53:20.200Z,98341.88
2022-09-28T06:56:32.747Z,98343.22
2022-09-28T06:59:53.023Z,98336.22
2022-09-28T07:02:59.937Z,98330.63
2022-09-28T07:06:03.765Z,98328.56
2022-09-28T07:08:55.731Z,98329.41
2022-09-28T07:11:51.174Z,98337.56
2022-09-28T07:14:46.792Z,98336.72
2022-09-28T07:18:00.379Z,98332.56
2022-09-28T07:20:53.682Z,98334.19
2022-09-28T07:23:29.280Z,98334.03
2022-09-28T07:26:22.571Z,98327.75
2022-09-28T07:29:34.964Z,98329.81
2022-09-28T07:35:40.688Z,98321.94
2022-09-28T07:38:29.608Z,98322.22
2022-09-28T07:41:35.458Z,98319.84
2022-09-28T07:44:44.664Z,98316.47
2022-09-28T07:47:33.921Z,98325.16
2022-09-28T07:50:28.457Z,98329.34
2022-09-28T07:53:36.081Z,98330.72
2022-09-28T07:56:18.219Z,98335.72
2022-09-28T07:59:06.065Z,98337.50
2022-09-28T08:02:13.982Z,98341.22
2022-09-28T08:05:11.537Z,98340.97
2022-09-28T08:07:51.079Z,98339.63
2022-09-28T08:10:47.185Z,98334.56
2022-09-28T08:13:27.021Z,98334.81
2022-09-28T08:16:23.717Z,98324.47
2022-09-28T08:19:06.148Z,98313.06
2022-09-28T08:21:51.714Z,98302.09
2022-09-28T08:24:56.669Z,98296.53
2022-09-28T08:27:41.483Z,98302.78
2022-09-28T08:30:24.600Z,98299.53
2022-09-28T08:33:04.127Z,98302.16
2022-09-28T08:35:40.238Z,98304.00
2022-09-28T08:38:14.069Z,98316.25
2022-09-28T08:41:01.565Z,98322.38
2022-09-28T08:43:44.853Z,98322.69
2022-09-28T08:46:14.333Z,98323.66
2022-09-28T08:49:20.420Z,98326.63
2022-09-28T08:51:54.961Z,98335.88
2022-09-28T08:54:34.478Z,98328.59
2022-09-28T08:57:16.449Z,98327.56
2022-09-28T09:00:01.566Z,98324.25
2022-09-28T09:02:44.488Z,98307.28
2022-09-28T09:05:31.331Z,98311.44
2022-09-28T09:08:09.588Z,98308.19
2022-09-28T09:10:58.169Z,98306.41
2022-09-28T09:13:57.129Z,98307.75
2022-09-28T09:16:39.695Z,98305.69
2022-09-28T09:19:20.545Z,98295.22
2022-09-28T09:22:08.791Z,98293.34
2022-09-28T09:25:03.246Z,98298.78
2022-09-28T09:27:51.067Z,98302.16
2022-09-28T09:30:33.192Z,98294.19
2022-09-28T09:33:36.796Z,98304.97
2022-09-28T09:36:20.799Z,98294.25
2022-09-28T09:39:10.438Z,98293.37
2022-09-28T09:42:38.812Z,98298.56
2022-09-28T09:45:39.931Z,98301.66
2022-09-28T09:48:43.677Z,98296.84
2022-09-28T09:51:29.549Z,98300.56
2022-09-28T09:54:12.988Z,98299.63
2022-09-28T09:57:01.467Z,98298.12
2022-09-28T10:00:17.122Z,98300.75
2022-09-28T10:03:12.439Z,98298.25
2022-09-28T10:06:11.967Z,98300.84
2022-09-28T10:09:16.936Z,98304.00
2022-09-28T10:12:01.538Z,98302.41
2022-09-28T10:18:00.077Z,98308.31
2022-09-28T10:20:46.396Z,98312.59
2022-09-28T10:23:27.267Z,98317.19
2022-09-28T10:26:10.529Z,98311.00
2022-09-28T10:28:53.768Z,98309.66
2022-09-28T10:31:42.998Z,98305.28
2022-09-28T10:34:48.756Z,98304.84
2022-09-28T10:37:49.432Z,98306.72
2022-09-28T10:40:30.579Z,98305.16
2022-09-28T10:43:33.228Z,98303.03
2022-09-28T10:46:18.704Z,98300.41
2022-09-28T10:49:02.759Z,98302.97
2022-09-28T10:51:41.017Z,98307.19
2022-09-28T10:57:34.493Z,98294.75
2022-09-28T11:00:41.535Z,98298.66
2022-09-28T11:03:38.603Z,98293.63
2022-09-28T11:06:22.525Z,98286.28
2022-09-28T11:09:40.896Z,98280.38
2022-09-28T11:12:22.539Z,98276.28
2022-09-28T11:15:25.275Z,98273.44
2022-09-28T11:18:23.211Z,98268.66
2022-09-28T11:21:21.627Z,98261.16
2022-09-28T11:24:09.505Z,98260.97
2022-09-28T11:26:56.804Z,98261.72
2022-09-28T11:29:48.383Z,98256.72
2022-09-28T11:32:40.857Z,98259.75
2022-09-28T11:35:25.801Z,98253.50
2022-09-28T11:38:11.936Z,98261.75
2022-09-28T11:41:16.347Z,98263.19
2022-09-28T11:44:09.959Z,98259.03
2022-09-28T11:47:01.226Z,98250.81
2022-09-28T11:49:56.058Z,98255.69
2022-09-28T11:53:00.726Z,98262.28
2022-09-28T11:55:51.632Z,98263.37
2022-09-28T11:58:38.730Z,98258.34
2022-09-28T12:01:30.597Z,98245.00
2022-09-28T12:04:39.555Z,98232.56
2022-09-28T12:07:45.313Z,98230.75
2022-09-28T12:10:26.454Z,98226.75
2022-09-28T12:12:57.843Z,98227.75
2022-09-28T12:18:55.451Z,98219.88
2022-09-28T12:21:48.204Z,98219.53
2022-09-28T12:24:38.054Z,98211.94
2022-09-28T12:27:43.021Z,98216.91
2022-09-28T12:30:35.860Z,98215.06
2022-09-28T12:33:25.309Z,98211.06
2022-09-28T12:36:28.984Z,98199.81
2022-09-28T12:42:11.247Z,98196.19
2022-09-28T12:44:58.623Z,98186.97
2022-09-28T12:48:15.937Z,98200.13
2022-09-28T12:51:07.652Z,98196.41
2022-09-28T12:54:15.082Z,98198.19
2022-09-28T12:56:56.588Z,98195.84
2022-09-28T12:59:47.378Z,98184.06
2022-09-28T13:02:40.856Z,98186.94
2022-09-28T13:05:26.732Z,98191.50
2022-09-28T13:08:31.960Z,98189.09
2022-09-28T13:11:23.453Z,98185.03
2022-09-28T13:14:25.879Z,98178.97
2022-09-28T13:17:05.458Z,98178.63
2022-09-28T13:20:13.014Z,98171.66
2022-09-28T13:26:24.711Z,98186.91
2022-09-28T13:29:28.991Z,98190.62
2022-09-28T13:32:14.379Z,98187.81
2022-09-28T13:35:07.295Z,98187.22
2022-09-28T13:37:47.020Z,98177.44
2022-09-28T13:40:17.592Z,98177.28
2022-09-28T13:42:58.939Z,98179.19
2022-09-28T13:45:58.847Z,98179.63
2022-09-28T13:48:44.053Z,98182.47
2022-09-28T13:51:18.670Z,98184.69
2022-09-28T13:54:16.021Z,98181.09
2022-09-28T13:56:59.652Z,98182.84
2022-09-28T13:59:35.569Z,98184.28
2022-09-28T14:02:13.272Z,98181.44
2022-09-28T14:04:55.226Z,98181.78
2022-09-28T14:07:34.690Z,98191.97
2022-09-28T14:10:21.304Z,98190.69
2022-09-28T14:13:08.042Z,98184.94
2022-09-28T14:15:49.132Z,98188.47
2022-09-28T14:18:32.842Z,98183.91
2022-09-28T14:21:29.233Z,98180.50
2022-09-28T14:24:11.349Z,98172.78
2022-09-28T14:27:14.990Z,98176.62
2022-09-28T14:29:59.208Z,98174.50
2022-09-28T14:32:41.487Z,98176.56
2022-09-28T14:35:28.245Z,98171.84
2022-09-28T14:38:25.062Z,98163.78
2022-09-28T14:41:15.090Z,98172.75
2022-09-28T14:44:00.781Z,98160.16
2022-09-28T14:46:40.630Z,98166.97
2022-09-28T14:49:29.170Z,98168.25
2022-09-28T14:52:06.057Z,98163.66
2022-09-28T14:54:51.879Z,98169.41
2022-09-28T14:57:22.174Z,98166.44
2022-09-28T14:59:50.994Z,98163.25
2022-09-28T15:02:24.524Z,98157.91
2022-09-28T15:04:54.373Z,98151.97
2022-09-28T15:07:25.655Z,98154.53
2022-09-28T15:09:54.815Z,98147.72
2022-09-28T15:12:27.569Z,98146.63
2022-09-28T15:14:56.699Z,98138.47
2022-09-28T15:17:29.323Z,98141.69
2022-09-28T15:20:13.300Z,98137.62
2022-09-28T15:22:50.340Z,98144.38
2022-09-28T15:25:20.883Z,98135.78
2022-09-28T15:27:52.973Z,98138.03
2022-09-28T15:30:24.255Z,98135.78
2022-09-28T15:32:57.023Z,98133.44
2022-09-28T15:35:26.370Z,98136.63
2022-09-28T15:37:58.784Z,98133.81
2022-09-28T15:40:30.052Z,98136.53
2022-09-28T15:43:02.538Z,98136.59
2022-09-28T15:45:34.785Z,98143.66
2022-09-28T15:48:22.025Z,98146.50
2022-09-28T15:50:57.234Z,98145.03
2022-09-28T15:53:27.708Z,98145.91
2022-09-28T15:56:06.134Z,98146.97
2022-09-28T15:58:34.517Z,98147.19
2022-09-28T16:01:20.905Z,98144.97
2022-09-28T16:03:50.884Z,98142.88
2022-09-28T16:06:19.298Z,98149.37
2022-09-28T16:08:51.363Z,98146.88
2022-09-28T16:11:22.685Z,98138.28
2022-09-28T16:14:19.986Z,98135.25
2022-09-28T16:16:49.421Z,98129.38
2022-09-28T16:19:23.676Z,98125.37
2022-09-28T16:21:59.990Z,98136.41
2022-09-28T16:24:32.895Z,98140.63
2022-09-28T16:27:07.595Z,98140.31
2022-09-28T16:29:42.991Z,98138.31
2022-09-28T16:32:31.468Z,98144.38
2022-09-28T16:35:08.999Z,98139.50
2022-09-28T16:37:37.684Z,98152.84
2022-09-28T16:40:09.434Z,98153.97
2022-09-28T16:42:38.547Z,98156.28
2022-09-28T16:45:12.057Z,98151.13
2022-09-28T16:47:41.597Z,98147.69
2022-09-28T16:50:15.281Z,98153.00
2022-09-28T16:53:03.445Z,98151.88
2022-09-28T16:55:40.522Z,98155.34
2022-09-28T16:58:09.941Z,98156.69
2022-09-28T17:00:45.788Z,98160.84
2022-09-28T17:03:21.082Z,98160.78
2022-09-28T17:05:49.807Z,98160.19
2022-09-28T17:08:22.246Z,98155.75
2022-09-28T17:13:45.915Z,98159.19
2022-09-28T17:16:15.752Z,98156.16
2022-09-28T17:18:48.693Z,98157.22
2022-09-28T17:21:20.486Z,98161.41
2022-09-28T17:24:01.942Z,98166.25
2022-09-28T17:26:33.553Z,98160.03
2022-09-28T17:29:02.771Z,98161.47
2022-09-28T17:31:34.513Z,98164.81
2022-09-28T17:34:07.532Z,98160.19
2022-09-28T17:36:48.102Z,98162.00
2022-09-28T17:39:46.844Z,98160.31
2022-09-28T17:42:22.664Z,98166.38
2022-09-28T17:44:51.078Z,98161.94
2022-09-28T17:47:23.822Z,98164.34
2022-09-28T17:49:53.836Z,98170.19
2022-09-28T17:52:25.646Z,98167.00
2022-09-28T17:54:54.170Z,98168.81
2022-09-28T17:57:27.036Z,98171.47
2022-09-28T17:59:55.479Z,98172.09
2022-09-28T18:02:30.034Z,98174.09
2022-09-28T18:04:59.092Z,98182.59
2022-09-28T18:07:31.375Z,98179.44
2022-09-28T18:10:03.252Z,98179.44
2022-09-28T18:12:34.327Z,98180.84
2022-09-28T18:15:03.120Z,98182.22
2022-09-28T18:17:32.294Z,98187.53
2022-09-28T18:20:00.813Z,98180.00
2022-09-28T18:22:32.780Z,98186.16
2022-09-28T18:25:01.220Z,98185.69
2022-09-28T18:27:31.562Z,98185.69
2022-09-28T18:30:02.340Z,98186.44
2022-09-28T18:32:38.580Z,98193.53
2022-09-28T18:35:07.787Z,98190.22
2022-09-28T18:37:37.434Z,98194.41
2022-09-28T18:40:06.452Z,98198.62
2022-09-28T18:42:38.892Z,98197.75
2022-09-28T18:45:11.303Z,98194.00
2022-09-28T18:47:42.120Z,98191.31
2022-09-28T18:50:12.994Z,98193.38
2022-09-28T18:52:42.553Z,98202.06
2022-09-28T18:55:11.689Z,98203.56
2022-09-28T18:57:44.294Z,98197.56
2022-09-28T19:00:16.109Z,98203.28
2022-09-28T19:02:48.150Z,98201.97
2022-09-28T19:05:16.933Z,98205.78
2022-09-28T19:07:45.267Z,98198.28
2022-09-28T19:10:13.698Z,98203.88
2022-09-28T19:12:52.654Z,98197.63
2022-09-28T19:15:29.961Z,98190.81
2022-09-28T19:18:12.362Z,98198.38
2022-09-28T19:20:42.499Z,98200.22
2022-09-28T19:23:14.136Z,98202.56
2022-09-28T19:25:46.273Z,98194.72
2022-09-28T19:28:25.464Z,98199.81
2022-09-28T19:30:58.968Z,98196.34
2022-09-28T19:33:29.557Z,98196.53
2022-09-28T19:35:59.128Z,98198.38
2022-09-28T19:38:29.823Z,98189.41
2022-09-28T19:41:01.742Z,98191.28
2022-09-28T19:43:31.207Z,98199.72
2022-09-28T19:46:04.463Z,98199.06
2022-09-28T19:48:34.974Z,98198.38
2022-09-28T19:51:24.903Z,98187.44
2022-09-28T19:53:54.033Z,98192.31
2022-09-28T19:56:48.921Z,98185.41
2022-09-28T20:00:51.245Z,98186.72
2022-09-28T20:07:28.755Z,98179.81
2022-09-28T20:11:17.085Z,98187.91
2022-09-28T20:20:24.807Z,98175.97
2022-09-28T20:23:09.297Z,98175.66
2022-09-28T20:25:53.172Z,98171.66
2022-09-28T20:28:34.256Z,98170.84
2022-09-28T20:31:39.808Z,98175.78
2022-09-28T22:01:08.072Z,98144.84
